sensor_id;sensor_type;location;lat;lon;timestamp;P1;durP1;ratioP1;P2;durP2;ratioP2
21138;SDS011;10727;43.600;1.444;2024-02-23T00:01:48;8.50;;;2.45;;
21138;SDS011;10727;43.600;1.444;2024-02-23T00:04:54;8.20;;;2.47;;
21138;SDS011;10727;43.600;1.444;2024-02-23T00:07:59;9.77;;;3.28;;
21138;SDS011;10727;43.600;1.444;2024-02-23T00:11:04;6.70;;;2.80;;
21138;SDS011;10727;43.600;1.444;2024-02-23T00:14:11;9.40;;;2.67;;
21138;SDS011;10727;43.600;1.444;2024-02-23T00:17:17;6.82;;;2.58;;
21138;SDS011;10727;43.600;1.444;2024-02-23T00:20:22;10.02;;;2.58;;
21138;SDS011;10727;43.600;1.444;2024-02-23T00:23:28;9.30;;;2.40;;
21138;SDS011;10727;43.600;1.444;2024-02-23T00:26:34;7.65;;;2.55;;
21138;SDS011;10727;43.600;1.444;2024-02-23T00:29:41;9.48;;;2.50;;
21138;SDS011;10727;43.600;1.444;2024-02-23T00:32:45;10.15;;;2.50;;
21138;SDS011;10727;43.600;1.444;2024-02-23T00:35:51;6.70;;;2.35;;
21138;SDS011;10727;43.600;1.444;2024-02-23T00:38:56;9.82;;;2.45;;
21138;SDS011;10727;43.600;1.444;2024-02-23T00:42:01;10.75;;;2.50;;
21138;SDS011;10727;43.600;1.444;2024-02-23T00:45:08;13.85;;;3.13;;
21138;SDS011;10727;43.600;1.444;2024-02-23T00:48:13;8.07;;;2.80;;
21138;SDS011;10727;43.600;1.444;2024-02-23T00:51:19;9.38;;;2.63;;
21138;SDS011;10727;43.600;1.444;2024-02-23T00:54:24;11.52;;;2.63;;
21138;SDS011;10727;43.600;1.444;2024-02-23T00:57:29;8.38;;;2.42;;
21138;SDS011;10727;43.600;1.444;2024-02-23T01:00:36;9.05;;;2.30;;
21138;SDS011;10727;43.600;1.444;2024-02-23T01:03:41;10.52;;;2.42;;
21138;SDS011;10727;43.600;1.444;2024-02-23T01:06:46;14.18;;;2.80;;
21138;SDS011;10727;43.600;1.444;2024-02-23T01:09:51;6.88;;;2.20;;
21138;SDS011;10727;43.600;1.444;2024-02-23T01:12:56;10.75;;;2.00;;
21138;SDS011;10727;43.600;1.444;2024-02-23T01:16:03;8.45;;;2.28;;
21138;SDS011;10727;43.600;1.444;2024-02-23T01:19:09;11.25;;;2.55;;
21138;SDS011;10727;43.600;1.444;2024-02-23T01:22:15;9.43;;;2.13;;
21138;SDS011;10727;43.600;1.444;2024-02-23T01:25:21;9.48;;;2.15;;
21138;SDS011;10727;43.600;1.444;2024-02-23T01:28:26;13.40;;;2.08;;
21138;SDS011;10727;43.600;1.444;2024-02-23T01:31:33;13.65;;;2.05;;
21138;SDS011;10727;43.600;1.444;2024-02-23T01:34:38;11.18;;;2.00;;
21138;SDS011;10727;43.600;1.444;2024-02-23T01:37:43;5.82;;;1.42;;
21138;SDS011;10727;43.600;1.444;2024-02-23T01:40:48;7.18;;;1.85;;
21138;SDS011;10727;43.600;1.444;2024-02-23T01:43:54;8.27;;;1.90;;
21138;SDS011;10727;43.600;1.444;2024-02-23T01:47:00;10.52;;;2.00;;
21138;SDS011;10727;43.600;1.444;2024-02-23T01:50:06;7.93;;;1.90;;
21138;SDS011;10727;43.600;1.444;2024-02-23T01:53:16;10.32;;;2.13;;
21138;SDS011;10727;43.600;1.444;2024-02-23T01:56:22;11.65;;;2.38;;
21138;SDS011;10727;43.600;1.444;2024-02-23T01:59:28;13.23;;;2.20;;
21138;SDS011;10727;43.600;1.444;2024-02-23T02:02:36;11.75;;;2.33;;
21138;SDS011;10727;43.600;1.444;2024-02-23T02:05:41;11.95;;;1.95;;
21138;SDS011;10727;43.600;1.444;2024-02-23T02:08:47;11.30;;;2.30;;
21138;SDS011;10727;43.600;1.444;2024-02-23T02:11:53;9.75;;;1.88;;
21138;SDS011;10727;43.600;1.444;2024-02-23T02:14:58;9.35;;;2.00;;
21138;SDS011;10727;43.600;1.444;2024-02-23T02:18:06;10.48;;;2.08;;
21138;SDS011;10727;43.600;1.444;2024-02-23T02:21:11;10.88;;;2.38;;
21138;SDS011;10727;43.600;1.444;2024-02-23T02:24:16;9.65;;;2.03;;
21138;SDS011;10727;43.600;1.444;2024-02-23T02:27:22;10.68;;;2.03;;
21138;SDS011;10727;43.600;1.444;2024-02-23T02:30:27;9.90;;;2.05;;
21138;SDS011;10727;43.600;1.444;2024-02-23T02:33:33;8.93;;;1.63;;
21138;SDS011;10727;43.600;1.444;2024-02-23T02:36:39;8.18;;;1.85;;
21138;SDS011;10727;43.600;1.444;2024-02-23T02:39:44;9.63;;;2.30;;
21138;SDS011;10727;43.600;1.444;2024-02-23T02:42:50;9.50;;;2.00;;
21138;SDS011;10727;43.600;1.444;2024-02-23T02:45:55;5.18;;;1.63;;
21138;SDS011;10727;43.600;1.444;2024-02-23T02:49:01;10.27;;;1.80;;
21138;SDS011;10727;43.600;1.444;2024-02-23T02:52:07;8.48;;;1.88;;
21138;SDS011;10727;43.600;1.444;2024-02-23T02:55:12;12.55;;;2.60;;
21138;SDS011;10727;43.600;1.444;2024-02-23T02:58:17;11.27;;;2.30;;
21138;SDS011;10727;43.600;1.444;2024-02-23T03:01:22;10.80;;;2.10;;
21138;SDS011;10727;43.600;1.444;2024-02-23T03:04:29;7.20;;;1.80;;
21138;SDS011;10727;43.600;1.444;2024-02-23T03:07:35;8.02;;;1.90;;
21138;SDS011;10727;43.600;1.444;2024-02-23T03:10:40;8.73;;;2.05;;
21138;SDS011;10727;43.600;1.444;2024-02-23T03:13:45;9.23;;;2.08;;
21138;SDS011;10727;43.600;1.444;2024-02-23T03:16:51;8.73;;;1.58;;
21138;SDS011;10727;43.600;1.444;2024-02-23T03:19:57;7.53;;;1.48;;
21138;SDS011;10727;43.600;1.444;2024-02-23T03:23:02;8.07;;;1.70;;
21138;SDS011;10727;43.600;1.444;2024-02-23T03:26:07;7.90;;;1.80;;
21138;SDS011;10727;43.600;1.444;2024-02-23T03:29:13;7.95;;;1.90;;
21138;SDS011;10727;43.600;1.444;2024-02-23T03:32:18;7.13;;;1.58;;
21138;SDS011;10727;43.600;1.444;2024-02-23T03:35:24;10.75;;;1.98;;
21138;SDS011;10727;43.600;1.444;2024-02-23T03:38:30;7.70;;;1.67;;
21138;SDS011;10727;43.600;1.444;2024-02-23T03:41:36;7.93;;;1.50;;
21138;SDS011;10727;43.600;1.444;2024-02-23T03:44:42;8.75;;;1.33;;
21138;SDS011;10727;43.600;1.444;2024-02-23T03:47:47;4.95;;;1.40;;
21138;SDS011;10727;43.600;1.444;2024-02-23T03:50:53;8.07;;;1.30;;
21138;SDS011;10727;43.600;1.444;2024-02-23T03:53:58;5.10;;;1.35;;
21138;SDS011;10727;43.600;1.444;2024-02-23T03:57:04;7.25;;;1.60;;
21138;SDS011;10727;43.600;1.444;2024-02-23T04:00:10;4.75;;;1.30;;
21138;SDS011;10727;43.600;1.444;2024-02-23T04:03:18;4.72;;;1.10;;
21138;SDS011;10727;43.600;1.444;2024-02-23T04:06:25;4.95;;;1.55;;
21138;SDS011;10727;43.600;1.444;2024-02-23T04:09:29;4.35;;;1.20;;
21138;SDS011;10727;43.600;1.444;2024-02-23T04:12:35;3.75;;;1.23;;
21138;SDS011;10727;43.600;1.444;2024-02-23T04:15:40;9.95;;;1.30;;
21138;SDS011;10727;43.600;1.444;2024-02-23T04:18:46;5.57;;;1.25;;
21138;SDS011;10727;43.600;1.444;2024-02-23T04:21:52;5.35;;;0.90;;
21138;SDS011;10727;43.600;1.444;2024-02-23T04:24:57;5.05;;;1.40;;
21138;SDS011;10727;43.600;1.444;2024-02-23T04:28:03;4.25;;;1.13;;
21138;SDS011;10727;43.600;1.444;2024-02-23T04:31:08;3.30;;;1.25;;
21138;SDS011;10727;43.600;1.444;2024-02-23T04:34:14;4.43;;;1.08;;
21138;SDS011;10727;43.600;1.444;2024-02-23T04:37:21;3.75;;;0.93;;
21138;SDS011;10727;43.600;1.444;2024-02-23T04:40:27;4.70;;;1.10;;
21138;SDS011;10727;43.600;1.444;2024-02-23T04:43:32;6.65;;;1.17;;
21138;SDS011;10727;43.600;1.444;2024-02-23T04:46:38;6.15;;;1.40;;
21138;SDS011;10727;43.600;1.444;2024-02-23T04:49:42;4.22;;;1.20;;
21138;SDS011;10727;43.600;1.444;2024-02-23T04:52:49;6.40;;;1.10;;
21138;SDS011;10727;43.600;1.444;2024-02-23T04:55:54;3.40;;;1.00;;
21138;SDS011;10727;43.600;1.444;2024-02-23T04:59:00;2.55;;;0.90;;
21138;SDS011;10727;43.600;1.444;2024-02-23T05:02:06;3.67;;;1.10;;
21138;SDS011;10727;43.600;1.444;2024-02-23T05:05:11;2.05;;;0.90;;
21138;SDS011;10727;43.600;1.444;2024-02-23T05:08:18;4.30;;;1.10;;
21138;SDS011;10727;43.600;1.444;2024-02-23T05:11:23;3.15;;;0.80;;
21138;SDS011;10727;43.600;1.444;2024-02-23T05:14:28;2.80;;;0.82;;
21138;SDS011;10727;43.600;1.444;2024-02-23T05:17:33;5.13;;;1.10;;
21138;SDS011;10727;43.600;1.444;2024-02-23T05:20:39;10.60;;;1.58;;
21138;SDS011;10727;43.600;1.444;2024-02-23T05:23:45;8.23;;;1.20;;
21138;SDS011;10727;43.600;1.444;2024-02-23T05:26:50;3.95;;;0.90;;
21138;SDS011;10727;43.600;1.444;2024-02-23T05:29:55;5.38;;;0.95;;
21138;SDS011;10727;43.600;1.444;2024-02-23T05:33:01;4.45;;;1.05;;
21138;SDS011;10727;43.600;1.444;2024-02-23T05:36:06;4.05;;;1.05;;
21138;SDS011;10727;43.600;1.444;2024-02-23T05:39:13;2.22;;;0.80;;
21138;SDS011;10727;43.600;1.444;2024-02-23T05:42:19;3.15;;;0.75;;
21138;SDS011;10727;43.600;1.444;2024-02-23T05:45:24;1.92;;;0.88;;
21138;SDS011;10727;43.600;1.444;2024-02-23T05:48:29;6.00;;;0.90;;
21138;SDS011;10727;43.600;1.444;2024-02-23T05:51:35;1.85;;;0.50;;
21138;SDS011;10727;43.600;1.444;2024-02-23T05:54:42;2.10;;;0.82;;
21138;SDS011;10727;43.600;1.444;2024-02-23T05:57:47;3.85;;;1.00;;
21138;SDS011;10727;43.600;1.444;2024-02-23T06:00:53;2.65;;;0.70;;
21138;SDS011;10727;43.600;1.444;2024-02-23T06:03:58;1.88;;;0.63;;
21138;SDS011;10727;43.600;1.444;2024-02-23T06:07:04;3.20;;;0.80;;
21138;SDS011;10727;43.600;1.444;2024-02-23T06:10:10;3.08;;;0.85;;
21138;SDS011;10727;43.600;1.444;2024-02-23T06:13:16;4.28;;;0.82;;
21138;SDS011;10727;43.600;1.444;2024-02-23T06:16:22;4.28;;;0.95;;
21138;SDS011;10727;43.600;1.444;2024-02-23T06:19:26;3.22;;;0.80;;
21138;SDS011;10727;43.600;1.444;2024-02-23T06:22:32;2.85;;;0.75;;
21138;SDS011;10727;43.600;1.444;2024-02-23T06:25:39;3.00;;;1.05;;
21138;SDS011;10727;43.600;1.444;2024-02-23T06:28:44;3.67;;;0.70;;
21138;SDS011;10727;43.600;1.444;2024-02-23T06:31:50;3.08;;;0.85;;
21138;SDS011;10727;43.600;1.444;2024-02-23T06:34:55;2.55;;;0.93;;
21138;SDS011;10727;43.600;1.444;2024-02-23T06:38:00;5.85;;;1.27;;
21138;SDS011;10727;43.600;1.444;2024-02-23T06:41:07;1.65;;;1.00;;
21138;SDS011;10727;43.600;1.444;2024-02-23T06:44:13;3.20;;;1.00;;
21138;SDS011;10727;43.600;1.444;2024-02-23T06:47:18;3.58;;;1.20;;
21138;SDS011;10727;43.600;1.444;2024-02-23T06:50:24;3.15;;;0.98;;
21138;SDS011;10727;43.600;1.444;2024-02-23T06:53:29;2.60;;;1.25;;
21138;SDS011;10727;43.600;1.444;2024-02-23T06:56:36;4.05;;;1.40;;
21138;SDS011;10727;43.600;1.444;2024-02-23T06:59:42;4.75;;;1.48;;
21138;SDS011;10727;43.600;1.444;2024-02-23T07:02:47;4.03;;;1.08;;
21138;SDS011;10727;43.600;1.444;2024-02-23T07:05:52;2.88;;;1.00;;
21138;SDS011;10727;43.600;1.444;2024-02-23T07:08:58;3.13;;;0.90;;
21138;SDS011;10727;43.600;1.444;2024-02-23T07:12:05;3.60;;;1.08;;
21138;SDS011;10727;43.600;1.444;2024-02-23T07:15:10;3.08;;;0.98;;
21138;SDS011;10727;43.600;1.444;2024-02-23T07:18:16;2.65;;;1.33;;
21138;SDS011;10727;43.600;1.444;2024-02-23T07:21:21;2.00;;;0.95;;
21138;SDS011;10727;43.600;1.444;2024-02-23T07:24:27;5.32;;;1.00;;
21138;SDS011;10727;43.600;1.444;2024-02-23T07:27:33;3.75;;;0.82;;
21138;SDS011;10727;43.600;1.444;2024-02-23T07:30:38;2.88;;;0.93;;
21138;SDS011;10727;43.600;1.444;2024-02-23T07:33:43;2.63;;;0.70;;
21138;SDS011;10727;43.600;1.444;2024-02-23T07:36:51;1.55;;;0.73;;
21138;SDS011;10727;43.600;1.444;2024-02-23T07:39:56;3.08;;;0.70;;
21138;SDS011;10727;43.600;1.444;2024-02-23T07:43:03;2.47;;;0.60;;
21138;SDS011;10727;43.600;1.444;2024-02-23T07:46:09;2.92;;;0.90;;
21138;SDS011;10727;43.600;1.444;2024-02-23T07:49:14;4.35;;;0.70;;
21138;SDS011;10727;43.600;1.444;2024-02-23T07:52:20;2.47;;;0.80;;
21138;SDS011;10727;43.600;1.444;2024-02-23T07:55:27;3.50;;;0.80;;
21138;SDS011;10727;43.600;1.444;2024-02-23T07:58:34;1.73;;;0.90;;
21138;SDS011;10727;43.600;1.444;2024-02-23T08:01:39;1.65;;;0.70;;
21138;SDS011;10727;43.600;1.444;2024-02-23T08:04:45;1.58;;;0.65;;
21138;SDS011;10727;43.600;1.444;2024-02-23T08:07:51;2.20;;;0.90;;
21138;SDS011;10727;43.600;1.444;2024-02-23T08:10:56;4.05;;;0.98;;
21138;SDS011;10727;43.600;1.444;2024-02-23T08:14:03;2.00;;;0.75;;
21138;SDS011;10727;43.600;1.444;2024-02-23T08:17:09;1.25;;;0.60;;
21138;SDS011;10727;43.600;1.444;2024-02-23T08:20:14;6.93;;;1.10;;
21138;SDS011;10727;43.600;1.444;2024-02-23T08:23:19;2.15;;;0.88;;
21138;SDS011;10727;43.600;1.444;2024-02-23T08:26:25;3.97;;;1.08;;
21138;SDS011;10727;43.600;1.444;2024-02-23T08:29:32;3.30;;;1.00;;
21138;SDS011;10727;43.600;1.444;2024-02-23T08:32:37;2.22;;;0.73;;
21138;SDS011;10727;43.600;1.444;2024-02-23T08:35:42;2.80;;;0.80;;
21138;SDS011;10727;43.600;1.444;2024-02-23T08:38:47;2.25;;;0.80;;
21138;SDS011;10727;43.600;1.444;2024-02-23T08:41:53;3.72;;;1.00;;
21138;SDS011;10727;43.600;1.444;2024-02-23T08:45:00;3.80;;;0.93;;
21138;SDS011;10727;43.600;1.444;2024-02-23T08:48:06;3.38;;;1.20;;
21138;SDS011;10727;43.600;1.444;2024-02-23T08:51:11;3.58;;;0.85;;
21138;SDS011;10727;43.600;1.444;2024-02-23T08:54:17;2.38;;;1.00;;
21138;SDS011;10727;43.600;1.444;2024-02-23T08:57:22;3.08;;;1.00;;
21138;SDS011;10727;43.600;1.444;2024-02-23T09:00:29;1.98;;;0.80;;
21138;SDS011;10727;43.600;1.444;2024-02-23T09:03:34;1.38;;;0.93;;
21138;SDS011;10727;43.600;1.444;2024-02-23T09:06:39;2.88;;;0.80;;
21138;SDS011;10727;43.600;1.444;2024-02-23T09:09:44;1.63;;;0.90;;
21138;SDS011;10727;43.600;1.444;2024-02-23T09:12:50;6.53;;;1.05;;
21138;SDS011;10727;43.600;1.444;2024-02-23T09:15:56;2.80;;;0.70;;
21138;SDS011;10727;43.600;1.444;2024-02-23T09:19:02;5.82;;;0.88;;
21138;SDS011;10727;43.600;1.444;2024-02-23T09:22:07;3.88;;;0.98;;
21138;SDS011;10727;43.600;1.444;2024-02-23T09:25:13;2.45;;;0.82;;
21138;SDS011;10727;43.600;1.444;2024-02-23T09:28:18;2.25;;;0.77;;
21138;SDS011;10727;43.600;1.444;2024-02-23T09:31:25;3.58;;;1.20;;
21138;SDS011;10727;43.600;1.444;2024-02-23T09:34:31;3.45;;;0.80;;
21138;SDS011;10727;43.600;1.444;2024-02-23T09:37:36;4.45;;;0.88;;
21138;SDS011;10727;43.600;1.444;2024-02-23T09:40:41;2.05;;;0.70;;
21138;SDS011;10727;43.600;1.444;2024-02-23T09:43:48;6.80;;;1.08;;
21138;SDS011;10727;43.600;1.444;2024-02-23T09:46:55;2.53;;;0.90;;
21138;SDS011;10727;43.600;1.444;2024-02-23T09:50:00;2.38;;;0.85;;
21138;SDS011;10727;43.600;1.444;2024-02-23T09:53:07;2.15;;;0.90;;
21138;SDS011;10727;43.600;1.444;2024-02-23T09:56:14;2.42;;;0.88;;
21138;SDS011;10727;43.600;1.444;2024-02-23T09:59:23;5.78;;;0.90;;
21138;SDS011;10727;43.600;1.444;2024-02-23T10:02:32;2.65;;;0.90;;
21138;SDS011;10727;43.600;1.444;2024-02-23T10:05:38;2.90;;;0.90;;
21138;SDS011;10727;43.600;1.444;2024-02-23T10:08:43;2.92;;;1.02;;
21138;SDS011;10727;43.600;1.444;2024-02-23T10:11:51;3.15;;;0.90;;
21138;SDS011;10727;43.600;1.444;2024-02-23T10:14:58;5.63;;;0.80;;
21138;SDS011;10727;43.600;1.444;2024-02-23T10:18:08;1.92;;;0.70;;
21138;SDS011;10727;43.600;1.444;2024-02-23T10:21:13;3.67;;;0.63;;
21138;SDS011;10727;43.600;1.444;2024-02-23T10:24:19;3.88;;;0.90;;
21138;SDS011;10727;43.600;1.444;2024-02-23T10:27:25;1.63;;;0.60;;
21138;SDS011;10727;43.600;1.444;2024-02-23T10:30:31;2.17;;;0.77;;
21138;SDS011;10727;43.600;1.444;2024-02-23T10:33:37;3.80;;;1.00;;
21138;SDS011;10727;43.600;1.444;2024-02-23T10:36:43;2.95;;;0.88;;
21138;SDS011;10727;43.600;1.444;2024-02-23T10:39:50;1.75;;;0.80;;
21138;SDS011;10727;43.600;1.444;2024-02-23T10:42:58;3.78;;;1.00;;
21138;SDS011;10727;43.600;1.444;2024-02-23T10:46:06;2.08;;;0.98;;
21138;SDS011;10727;43.600;1.444;2024-02-23T10:49:17;1.45;;;0.90;;
21138;SDS011;10727;43.600;1.444;2024-02-23T10:52:25;2.17;;;0.70;;
21138;SDS011;10727;43.600;1.444;2024-02-23T10:55:31;1.67;;;0.60;;
21138;SDS011;10727;43.600;1.444;2024-02-23T10:58:37;4.05;;;0.70;;
21138;SDS011;10727;43.600;1.444;2024-02-23T11:01:42;2.05;;;0.80;;
21138;SDS011;10727;43.600;1.444;2024-02-23T11:04:49;1.55;;;0.80;;
21138;SDS011;10727;43.600;1.444;2024-02-23T11:07:55;2.00;;;0.73;;
21138;SDS011;10727;43.600;1.444;2024-02-23T11:11:06;3.38;;;1.00;;
21138;SDS011;10727;43.600;1.444;2024-02-23T11:14:12;2.75;;;0.80;;
21138;SDS011;10727;43.600;1.444;2024-02-23T11:17:17;1.30;;;0.70;;
21138;SDS011;10727;43.600;1.444;2024-02-23T11:20:24;1.35;;;0.80;;
21138;SDS011;10727;43.600;1.444;2024-02-23T11:23:39;1.75;;;0.63;;
21138;SDS011;10727;43.600;1.444;2024-02-23T11:26:45;4.38;;;1.10;;
21138;SDS011;10727;43.600;1.444;2024-02-23T11:29:58;2.22;;;1.00;;
21138;SDS011;10727;43.600;1.444;2024-02-23T11:33:07;1.73;;;0.98;;
21138;SDS011;10727;43.600;1.444;2024-02-23T11:36:21;1.88;;;0.98;;
21138;SDS011;10727;43.600;1.444;2024-02-23T11:39:26;3.30;;;0.80;;
21138;SDS011;10727;43.600;1.444;2024-02-23T11:42:32;3.78;;;1.50;;
21138;SDS011;10727;43.600;1.444;2024-02-23T11:45:38;4.07;;;1.20;;
21138;SDS011;10727;43.600;1.444;2024-02-23T11:48:43;4.05;;;1.27;;
21138;SDS011;10727;43.600;1.444;2024-02-23T11:51:51;3.83;;;1.17;;
21138;SDS011;10727;43.600;1.444;2024-02-23T11:54:56;3.00;;;1.05;;
21138;SDS011;10727;43.600;1.444;2024-02-23T11:58:02;3.00;;;1.23;;
21138;SDS011;10727;43.600;1.444;2024-02-23T12:01:07;3.30;;;1.20;;
21138;SDS011;10727;43.600;1.444;2024-02-23T12:04:13;2.70;;;1.40;;
21138;SDS011;10727;43.600;1.444;2024-02-23T12:07:20;3.15;;;1.23;;
21138;SDS011;10727;43.600;1.444;2024-02-23T12:10:29;2.55;;;1.30;;
21138;SDS011;10727;43.600;1.444;2024-02-23T12:13:34;2.50;;;1.13;;
21138;SDS011;10727;43.600;1.444;2024-02-23T12:16:41;3.47;;;0.98;;
21138;SDS011;10727;43.600;1.444;2024-02-23T12:19:46;1.83;;;0.73;;
21138;SDS011;10727;43.600;1.444;2024-02-23T12:22:55;4.07;;;1.10;;
21138;SDS011;10727;43.600;1.444;2024-02-23T12:26:01;1.67;;;0.93;;
21138;SDS011;10727;43.600;1.444;2024-02-23T12:29:06;2.10;;;1.00;;
21138;SDS011;10727;43.600;1.444;2024-02-23T12:32:11;2.53;;;0.90;;
21138;SDS011;10727;43.600;1.444;2024-02-23T12:35:16;3.45;;;1.23;;
21138;SDS011;10727;43.600;1.444;2024-02-23T12:38:23;2.10;;;0.90;;
21138;SDS011;10727;43.600;1.444;2024-02-23T12:41:29;1.33;;;0.70;;
21138;SDS011;10727;43.600;1.444;2024-02-23T12:44:34;2.08;;;0.90;;
21138;SDS011;10727;43.600;1.444;2024-02-23T12:47:40;1.33;;;0.60;;
21138;SDS011;10727;43.600;1.444;2024-02-23T12:50:45;1.88;;;0.75;;
21138;SDS011;10727;43.600;1.444;2024-02-23T12:53:52;1.73;;;0.80;;
21138;SDS011;10727;43.600;1.444;2024-02-23T12:56:58;0.98;;;0.60;;
21138;SDS011;10727;43.600;1.444;2024-02-23T13:00:03;2.80;;;0.70;;
21138;SDS011;10727;43.600;1.444;2024-02-23T13:03:09;0.77;;;0.50;;
21138;SDS011;10727;43.600;1.444;2024-02-23T13:06:14;3.33;;;0.90;;
21138;SDS011;10727;43.600;1.444;2024-02-23T13:09:21;3.72;;;0.68;;
21138;SDS011;10727;43.600;1.444;2024-02-23T13:12:26;3.08;;;0.93;;
21138;SDS011;10727;43.600;1.444;2024-02-23T13:15:32;1.30;;;0.80;;
21138;SDS011;10727;43.600;1.444;2024-02-23T13:18:37;1.25;;;0.65;;
21138;SDS011;10727;43.600;1.444;2024-02-23T13:21:43;1.90;;;0.75;;
21138;SDS011;10727;43.600;1.444;2024-02-23T13:24:49;1.85;;;0.60;;
21138;SDS011;10727;43.600;1.444;2024-02-23T13:27:55;2.13;;;0.80;;
21138;SDS011;10727;43.600;1.444;2024-02-23T13:31:00;1.50;;;0.77;;
21138;SDS011;10727;43.600;1.444;2024-02-23T13:34:05;2.38;;;0.68;;
21138;SDS011;10727;43.600;1.444;2024-02-23T13:37:12;1.67;;;0.80;;
21138;SDS011;10727;43.600;1.444;2024-02-23T13:40:19;3.65;;;1.00;;
21138;SDS011;10727;43.600;1.444;2024-02-23T13:43:25;2.83;;;0.80;;
21138;SDS011;10727;43.600;1.444;2024-02-23T13:46:31;2.42;;;0.80;;
21138;SDS011;10727;43.600;1.444;2024-02-23T13:49:36;3.47;;;0.60;;
21138;SDS011;10727;43.600;1.444;2024-02-23T13:52:41;1.85;;;0.60;;
21138;SDS011;10727;43.600;1.444;2024-02-23T13:55:47;2.60;;;0.88;;
21138;SDS011;10727;43.600;1.444;2024-02-23T13:58:53;1.98;;;0.85;;
21138;SDS011;10727;43.600;1.444;2024-02-23T14:01:58;2.38;;;0.50;;
21138;SDS011;10727;43.600;1.444;2024-02-23T14:05:03;2.25;;;0.73;;
21138;SDS011;10727;43.600;1.444;2024-02-23T14:08:10;1.27;;;0.80;;
21138;SDS011;10727;43.600;1.444;2024-02-23T14:11:16;2.08;;;0.60;;
21138;SDS011;10727;43.600;1.444;2024-02-23T14:14:23;1.45;;;0.82;;
21138;SDS011;10727;43.600;1.444;2024-02-23T14:17:28;2.55;;;0.90;;
21138;SDS011;10727;43.600;1.444;2024-02-23T14:20:34;1.50;;;0.80;;
21138;SDS011;10727;43.600;1.444;2024-02-23T14:23:39;1.70;;;0.70;;
21138;SDS011;10727;43.600;1.444;2024-02-23T14:26:46;1.55;;;0.70;;
21138;SDS011;10727;43.600;1.444;2024-02-23T14:29:51;0.52;;;0.40;;
21138;SDS011;10727;43.600;1.444;2024-02-23T14:32:56;1.98;;;0.77;;
21138;SDS011;10727;43.600;1.444;2024-02-23T14:36:02;1.65;;;0.70;;
21138;SDS011;10727;43.600;1.444;2024-02-23T14:39:08;3.55;;;0.60;;
21138;SDS011;10727;43.600;1.444;2024-02-23T14:42:17;2.13;;;0.60;;
21138;SDS011;10727;43.600;1.444;2024-02-23T14:45:22;2.78;;;0.70;;
21138;SDS011;10727;43.600;1.444;2024-02-23T14:48:30;2.85;;;0.70;;
21138;SDS011;10727;43.600;1.444;2024-02-23T14:51:35;1.77;;;0.70;;
21138;SDS011;10727;43.600;1.444;2024-02-23T14:54:40;2.53;;;0.88;;
21138;SDS011;10727;43.600;1.444;2024-02-23T14:57:47;0.73;;;0.52;;
21138;SDS011;10727;43.600;1.444;2024-02-23T15:00:52;1.13;;;0.70;;
21138;SDS011;10727;43.600;1.444;2024-02-23T15:03:57;0.65;;;0.50;;
21138;SDS011;10727;43.600;1.444;2024-02-23T15:07:02;1.88;;;0.50;;
21138;SDS011;10727;43.600;1.444;2024-02-23T15:10:08;0.70;;;0.40;;
21138;SDS011;10727;43.600;1.444;2024-02-23T15:13:15;2.17;;;0.80;;
21138;SDS011;10727;43.600;1.444;2024-02-23T15:16:20;0.77;;;0.52;;
21138;SDS011;10727;43.600;1.444;2024-02-23T15:19:26;2.03;;;0.60;;
21138;SDS011;10727;43.600;1.444;2024-02-23T15:22:32;2.85;;;0.65;;
21138;SDS011;10727;43.600;1.444;2024-02-23T15:25:37;0.82;;;0.60;;
21138;SDS011;10727;43.600;1.444;2024-02-23T15:28:44;0.65;;;0.60;;
21138;SDS011;10727;43.600;1.444;2024-02-23T15:31:50;1.92;;;0.70;;
21138;SDS011;10727;43.600;1.444;2024-02-23T15:34:55;0.85;;;0.52;;
21138;SDS011;10727;43.600;1.444;2024-02-23T15:38:00;1.58;;;0.90;;
21138;SDS011;10727;43.600;1.444;2024-02-23T15:41:05;1.13;;;0.57;;
21138;SDS011;10727;43.600;1.444;2024-02-23T15:44:12;3.20;;;0.75;;
21138;SDS011;10727;43.600;1.444;2024-02-23T15:47:18;1.27;;;0.60;;
21138;SDS011;10727;43.600;1.444;2024-02-23T15:50:23;2.97;;;0.68;;
21138;SDS011;10727;43.600;1.444;2024-02-23T15:53:30;4.25;;;0.95;;
21138;SDS011;10727;43.600;1.444;2024-02-23T15:56:35;4.10;;;0.82;;
21138;SDS011;10727;43.600;1.444;2024-02-23T15:59:42;0.80;;;0.60;;
21138;SDS011;10727;43.600;1.444;2024-02-23T16:02:48;2.83;;;0.82;;
21138;SDS011;10727;43.600;1.444;2024-02-23T16:05:53;2.22;;;0.63;;
21138;SDS011;10727;43.600;1.444;2024-02-23T16:08:58;2.30;;;0.80;;
21138;SDS011;10727;43.600;1.444;2024-02-23T16:12:05;4.03;;;0.80;;
21138;SDS011;10727;43.600;1.444;2024-02-23T16:15:12;2.53;;;0.90;;
21138;SDS011;10727;43.600;1.444;2024-02-23T16:18:17;1.52;;;1.00;;
21138;SDS011;10727;43.600;1.444;2024-02-23T16:21:23;2.15;;;0.80;;
21138;SDS011;10727;43.600;1.444;2024-02-23T16:24:28;2.65;;;0.75;;
21138;SDS011;10727;43.600;1.444;2024-02-23T16:27:33;1.15;;;0.68;;
21138;SDS011;10727;43.600;1.444;2024-02-23T16:30:40;1.85;;;0.60;;
21138;SDS011;10727;43.600;1.444;2024-02-23T16:33:45;3.42;;;1.13;;
21138;SDS011;10727;43.600;1.444;2024-02-23T16:36:51;3.97;;;1.00;;
21138;SDS011;10727;43.600;1.444;2024-02-23T16:39:56;1.92;;;0.60;;
21138;SDS011;10727;43.600;1.444;2024-02-23T16:43:02;1.60;;;0.80;;
21138;SDS011;10727;43.600;1.444;2024-02-23T16:46:09;3.13;;;0.80;;
21138;SDS011;10727;43.600;1.444;2024-02-23T16:49:14;2.40;;;0.93;;
21138;SDS011;10727;43.600;1.444;2024-02-23T16:52:20;2.72;;;1.15;;
21138;SDS011;10727;43.600;1.444;2024-02-23T16:55:25;1.50;;;0.90;;
21138;SDS011;10727;43.600;1.444;2024-02-23T16:58:30;5.05;;;1.05;;
21138;SDS011;10727;43.600;1.444;2024-02-23T17:01:40;2.03;;;0.88;;
21138;SDS011;10727;43.600;1.444;2024-02-23T17:04:47;2.60;;;0.90;;
21138;SDS011;10727;43.600;1.444;2024-02-23T17:07:52;1.70;;;0.90;;
21138;SDS011;10727;43.600;1.444;2024-02-23T17:10:57;1.73;;;0.80;;
21138;SDS011;10727;43.600;1.444;2024-02-23T17:14:03;3.28;;;0.90;;
21138;SDS011;10727;43.600;1.444;2024-02-23T17:17:10;3.75;;;1.10;;
21138;SDS011;10727;43.600;1.444;2024-02-23T17:20:15;1.33;;;0.77;;
21138;SDS011;10727;43.600;1.444;2024-02-23T17:23:21;4.35;;;1.05;;
21138;SDS011;10727;43.600;1.444;2024-02-23T17:26:27;2.67;;;1.10;;
21138;SDS011;10727;43.600;1.444;2024-02-23T17:29:32;2.22;;;1.20;;
21138;SDS011;10727;43.600;1.444;2024-02-23T17:32:38;2.25;;;1.00;;
21138;SDS011;10727;43.600;1.444;2024-02-23T17:35:44;2.15;;;1.10;;
21138;SDS011;10727;43.600;1.444;2024-02-23T17:38:49;1.42;;;0.80;;
21138;SDS011;10727;43.600;1.444;2024-02-23T17:41:55;1.88;;;1.30;;
21138;SDS011;10727;43.600;1.444;2024-02-23T17:45:02;1.98;;;0.98;;
21138;SDS011;10727;43.600;1.444;2024-02-23T17:48:09;2.22;;;1.10;;
21138;SDS011;10727;43.600;1.444;2024-02-23T17:51:14;2.20;;;0.90;;
21138;SDS011;10727;43.600;1.444;2024-02-23T17:54:20;2.03;;;1.13;;
21138;SDS011;10727;43.600;1.444;2024-02-23T17:57:26;2.38;;;0.90;;
21138;SDS011;10727;43.600;1.444;2024-02-23T18:00:32;1.67;;;0.90;;
21138;SDS011;10727;43.600;1.444;2024-02-23T18:03:39;2.60;;;0.80;;
21138;SDS011;10727;43.600;1.444;2024-02-23T18:06:44;1.98;;;1.00;;
21138;SDS011;10727;43.600;1.444;2024-02-23T18:09:49;1.52;;;1.10;;
21138;SDS011;10727;43.600;1.444;2024-02-23T18:12:55;3.40;;;0.90;;
21138;SDS011;10727;43.600;1.444;2024-02-23T18:16:00;2.35;;;0.98;;
21138;SDS011;10727;43.600;1.444;2024-02-23T18:19:08;1.65;;;0.93;;
21138;SDS011;10727;43.600;1.444;2024-02-23T18:22:13;5.60;;;1.45;;
21138;SDS011;10727;43.600;1.444;2024-02-23T18:25:18;2.60;;;1.02;;
21138;SDS011;10727;43.600;1.444;2024-02-23T18:28:24;2.58;;;1.40;;
21138;SDS011;10727;43.600;1.444;2024-02-23T18:31:29;3.05;;;1.60;;
21138;SDS011;10727;43.600;1.444;2024-02-23T18:34:36;3.83;;;1.50;;
21138;SDS011;10727;43.600;1.444;2024-02-23T18:37:41;4.13;;;1.65;;